Main page
METAR-TAF:

METAR-TAF

Airports :

Morón de la Frontera, Spain

Morón Air Base

latitude: 37-09N, longitude: 005-37W, elevation: 87 m

Current weather observation

The report was made 1 hour and 8 minutes ago, at 01:00 UTC
Wind 6 kt from the South
Temperature 17°C
Humidity 82%
Pressure 1018 hPa
Visibility 10 km or more
Broken clouds at a height of 1300 ft
Broken clouds at a height of 1600 ft
Broken clouds at a height of 2100 ft

METAR: LEMO 290100Z 19006KT 9999 BKN013 BKN016 BKN021 17/14 Q1018 NOSIG

Time: 04:08 (02:08 UTC)

Forecast

The report was made 3 hours and 8 minutes ago, at 23:00 UTC
Forecast valid from 29 at 00 UTC to 29 at 09 UTC
Wind 7 kt from the South/Southwest
Visibility 10 km or more
Scattered clouds at a height of 2000 ft
Probability 40% :
Temporary
from 29 at 00 UTC to 29 at 09 UTC
Visibility: 4000 m
Broken clouds at a height of 1000 ft
mist

TAF: LEMO 282300Z 2900/2909 21007KT 9999 SCT020 PROB40 TEMPO 2900/2909 4000 BR BKN010

Weather observations and forecasts of more than 4000 airports (METAR and TAF reports).

The available stations are represented by yellow and red dots on the map.

Hover mouse over dot to see the name of the station.

Then click to see weather observations and forecasts.

To change the map : click on the green buttons with a black cross to zoom in, on the green button with a dash to zoom out, or on the green arrows for adjacent maps.


METAR-TAF: